This is the latest recevied weather packets stored in our database for station/object EA8DNP-14. If no packets are shown the sender has not sent any weather packets the latest 10 day(s).
| Time | Temp. | Humidity | Pressure | Rain* | Wind** | Luminosity | Snow |
|---|---|---|---|---|---|---|---|
| 1787648549 | 25.56° C | 43% | 903.3 hPa | - | - | - | - |
| 1787647651 | 24.44° C | 44% | 903.3 hPa | - | - | - | - |
| 1787646749 | 23.89° C | 45% | 903.1 hPa | - | - | - | - |
| 1787645849 | 23.89° C | 47% | 903.1 hPa | - | - | - | - |
| 1787644949 | 23.33° C | 48% | 902.9 hPa | - | - | - | - |
| 1787644047 | 21.11° C | 53% | 902.8 hPa | - | - | - | - |
| 1787643147 | 18.33° C | 58% | 902.7 hPa | - | - | - | - |
| 1787642247 | 15° C | 64% | 902.8 hPa | - | - | - | - |
| 1787641347 | 11.67° C | 69% | 902.8 hPa | - | - | - | - |
| 1787640442 | 10° C | 72% | 902.6 hPa | - | - | - | - |
| 1787639542 | 10° C | 71% | 902.8 hPa | - | - | - | - |
| 1787638642 | 10° C | 70% | 902.7 hPa | - | - | - | - |
| 1787637742 | 10° C | 70% | 902.8 hPa | - | - | - | - |
| 1787636842 | 10° C | 69% | 902.5 hPa | - | - | - | - |
| 1787635942 | 10° C | 69% | 902.5 hPa | - | - | - | - |
| 1787635042 | 10° C | 70% | 902.4 hPa | - | - | - | - |
| 1787634142 | 10° C | 70% | 902.3 hPa | - | - | - | - |
| 1787633242 | 10° C | 70% | 902.3 hPa | - | - | - | - |
| 1787632342 | 10° C | 69% | 902.3 hPa | - | - | - | - |
| 1787631442 | 10.56° C | 69% | 902.4 hPa | - | - | - | - |
| 1787630542 | 10.56° C | 70% | 902.2 hPa | - | - | - | - |
| 1787629641 | 10.56° C | 70% | 902.3 hPa | - | - | - | - |
| 1787628741 | 10.56° C | 69% | 902.6 hPa | - | - | - | - |
| 1787627841 | 10.56° C | 69% | 902.6 hPa | - | - | - | - |
| 1787626941 | 10.56° C | 69% | 902.8 hPa | - | - | - | - |
* Rain since midnight (hover to see other rain measurements)
** Current wind speed in m/s (hover to see current wind gust speed)